Terminal Aerodrome Forecast
Issued by NWS Springfield, MO

Home | Current Version | Previous Version | Text Only | Print | Product List | Glossary On
Versions: 1 2 3 4 5 6 7 8 9 10 11 12 13 14 15 16 17 18 19 20
000
FTUS43 KSGF 210500
TAFSGF
TAF
KSGF 210520Z 2106/2206 17004KT P6SM FEW070 OVC120
     FM210900 16008KT 5SM -SHRA BR SCT035 OVC070
     FM211100 18006KT 5SM -SHRA BR SCT025 OVC040
      TEMPO 2111/2115 3SM SHRA BR SCT015 OVC025
     FM211500 23008KT 5SM -SHRA VCTS SCT015 OVC030CB
     FM212100 27010KT P6SM -SHRA VCTS BKN040CB OVC120
     FM220100 30005KT P6SM BKN100=

USA.gov is the U.S. government's official web portal to all federal, state and local government web resources and services.